Time;durP1;ratioP1;P1;durP2;ratioP2;P2;SDS_P1;SDS_P2;PMS_P1;PMS_P2;Temp;Humidity;BMP_temperature;BMP_pressure;BME280_temperature;BME280_humidity;BME280_pressure;Samples;Min_cycle;Max_cycle;Signal;HPM_P1;HPM_P2
2022/10/06 00:02:48;;;;;;;;;;;;;;;;;;;;;
2022/10/06 00:07:16;;;;;;;;;;;;;;;;;;;;;
2022/10/06 00:15:45;;;;;;;1.90;1.08;;;13.20;99.90;;;;;;6019794;23;20023;-87
2022/10/06 00:19:54;;;;;;;2.13;1.33;;;12.90;99.90;;;;;;5986860;23;20023;-88
2022/10/06 00:23:19;;;;;;;1.88;1.75;;;12.80;99.90;;;;;;5979509;23;20024;-87
2022/10/06 00:26:20;;;;;;;1.67;1.48;;;12.80;99.90;;;;;;6043135;23;20022;-87
2022/10/06 00:30:54;;;;;;;;;;;;;;;;;;;;;
2022/10/06 00:34:57;;;;;;;1.45;1.30;;;13.00;99.90;;;;;;5980784;23;20030;-87
2022/10/06 00:47:33;;;;;;;1.95;1.85;;;12.50;99.90;;;;;;6100941;23;20034;-87
2022/10/06 01:12:17;;;;;;;2.40;2.20;;;12.00;99.90;;;;;;6136513;23;20021;-88
2022/10/06 01:36:06;;;;;;;;;;;;;;;;;;;;;
2022/10/06 01:40:32;;;;;;;;;;;;;;;;;;;;;
2022/10/06 01:44:43;;;;;;;1.45;1.35;;;11.60;99.90;;;;;;6021778;23;20023;-87
2022/10/06 01:48:39;;;;;;;3.55;1.30;;;11.40;99.90;;;;;;5926141;23;20017;-87
2022/10/06 01:58:07;;;;;;;1.45;1.35;;;10.80;99.90;;;;;;5843914;24;20030;-87
2022/10/06 02:02:54;;;;;;;;;;;;;;;;;;;;;
2022/10/06 02:31:10;;;;;;;1.40;1.30;;;9.20;99.90;;;;;;5923488;24;20032;-87
2022/10/06 02:50:26;;;;;;;1.70;1.60;;;8.90;99.90;;;;;;6150250;23;20025;-86
2022/10/06 02:54:01;;;;;;;3.65;1.70;;;9.00;99.90;;;;;;6095815;23;20029;-87
2022/10/06 03:02:52;;;;;;;2.80;1.83;;;9.20;99.90;;;;;;6092994;23;20038;-87
2022/10/06 03:57:16;;;;;;;1.48;1.42;;;8.30;99.90;;;;;;5985714;24;20031;-87
2022/10/06 04:01:52;;;;;;;;;;;;;;;;;;;;;
2022/10/06 04:11:10;;;;;;;9.77;3.20;;;7.70;99.90;;;;;;6034586;23;20124;-87
2022/10/06 04:15:42;;;;;;;;;;;;;;;;;;;;;
2022/10/06 04:20:24;;;;;;;9.00;3.70;;;7.60;99.90;;;;;;6034353;23;20025;-88
2022/10/06 04:43:49;;;;;;;2.42;2.22;;;7.90;99.90;;;;;;6092563;23;20022;-83
2022/10/06 04:46:18;;;;;;;2.22;1.80;;;7.90;99.90;;;;;;6100354;23;20671;-83
2022/10/06 04:50:09;;;;;;;1.60;1.50;;;7.90;99.90;;;;;;6233748;23;20482;-86
2022/10/06 04:56:48;;;;;;;1.70;1.60;;;7.80;99.90;;;;;;5920151;24;20041;-87
2022/10/06 05:03:22;;;;;;;2.20;2.10;;;7.70;99.90;;;;;;6080372;23;20356;-86
2022/10/06 05:06:30;;;;;;;2.53;1.92;;;7.80;99.90;;;;;;6164642;23;20017;-84
2022/10/06 05:09:00;;;;;;;2.22;2.13;;;7.80;99.90;;;;;;6189540;23;20029;-84
2022/10/06 05:11:28;;;;;;;2.75;2.17;;;7.70;99.90;;;;;;6194507;23;20021;-84
2022/10/06 05:13:57;;;;;;;6.78;1.83;;;7.90;99.90;;;;;;6199054;23;20024;-84
2022/10/06 05:16:28;;;;;;;8.55;1.95;;;7.80;99.90;;;;;;6188883;23;20035;-84
2022/10/06 05:18:57;;;;;;;2.53;2.33;;;7.90;99.90;;;;;;6168604;23;20017;-85
2022/10/06 05:21:47;;;;;;;2.53;1.90;;;7.80;99.90;;;;;;6193945;23;20013;-85
2022/10/06 05:24:19;;;;;;;1.80;1.63;;;7.90;99.90;;;;;;6163466;23;20028;-83
2022/10/06 05:26:48;;;;;;;1.95;1.85;;;7.80;99.90;;;;;;6159470;23;20017;-87
2022/10/06 05:29:16;;;;;;;3.67;1.77;;;7.50;99.90;;;;;;6195276;23;20024;-86
2022/10/06 05:31:44;;;;;;;1.95;1.85;;;7.50;99.90;;;;;;6159521;23;20028;-85
2022/10/06 05:34:13;;;;;;;1.85;1.65;;;7.40;99.90;;;;;;6136002;23;20028;-86
2022/10/06 05:36:48;;;;;;;3.28;1.55;;;7.60;99.90;;;;;;6186105;23;20075;-85
2022/10/06 05:39:15;;;;;;;3.05;2.30;;;7.60;99.90;;;;;;6202079;23;20143;-87
2022/10/06 08:15:37;;;;;;;1.40;1.30;;;15.40;99.90;;;;;;6222177;22;20024;-90
2022/10/06 08:18:18;;;;;;;1.70;1.40;;;15.80;99.90;;;;;;6217959;23;20023;-89
2022/10/06 08:21:35;;;;;;;4.00;1.75;;;16.00;99.90;;;;;;6175725;23;20028;-84
2022/10/06 08:24:29;;;;;;;1.75;1.15;;;16.10;99.90;;;;;;6189485;23;20024;-89
2022/10/06 08:27:22;;;;;;;2.65;1.45;;;16.20;99.90;;;;;;6195849;23;20024;-89
2022/10/06 08:29:50;;;;;;;2.45;2.22;;;16.20;99.90;;;;;;6191860;23;20028;-90
2022/10/06 08:32:20;;;;;;;4.88;1.73;;;16.20;99.90;;;;;;6191102;23;20325;-89
2022/10/06 08:35:03;;;;;;;1.83;1.70;;;16.30;99.90;;;;;;6192545;22;20031;-89
2022/10/06 08:37:31;;;;;;;1.98;1.48;;;16.20;99.90;;;;;;6204019;23;20440;-90
2022/10/06 08:39:59;;;;;;;5.32;2.40;;;16.30;99.90;;;;;;6216237;23;20036;-89
2022/10/06 08:42:35;;;;;;;3.53;1.50;;;16.30;99.90;;;;;;6216930;23;20027;-90
2022/10/06 08:45:14;;;;;;;3.97;1.38;;;16.30;99.90;;;;;;6192893;22;20028;-88
2022/10/06 08:47:49;;;;;;;7.55;1.80;;;16.40;99.90;;;;;;6190656;23;20344;-91
2022/10/06 08:50:24;;;;;;;2.50;2.15;;;16.40;99.90;;;;;;6202312;23;20016;-92
2022/10/06 08:53:09;;;;;;;2.45;2.00;;;16.40;99.90;;;;;;6243652;22;20024;-90
2022/10/06 08:55:54;;;;;;;3.78;1.33;;;16.40;99.90;;;;;;6181144;23;20027;-90
2022/10/06 08:58:43;;;;;;;6.50;1.90;;;16.40;99.90;;;;;;6168018;23;20020;-92
2022/10/06 09:01:17;;;;;;;2.13;1.98;;;16.40;99.90;;;;;;6241932;23;20459;-91
2022/10/06 09:03:47;;;;;;;2.03;1.50;;;16.40;99.90;;;;;;6252150;22;20023;-88
2022/10/06 09:06:36;;;;;;;2.65;2.45;;;16.50;99.90;;;;;;6207838;23;20012;-92
2022/10/06 09:09:24;;;;;;;2.90;1.85;;;16.50;99.90;;;;;;6163714;23;20028;-87
2022/10/06 09:12:20;;;;;;;3.70;2.28;;;16.60;99.90;;;;;;6216855;23;20467;-89
2022/10/06 09:15:15;;;;;;;5.88;3.42;;;16.60;99.90;;;;;;6144606;22;20043;-90
2022/10/06 09:17:55;;;;;;;1.52;1.30;;;16.70;99.90;;;;;;6186124;23;20016;-90
2022/10/06 09:20:38;;;;;;;7.25;1.63;;;16.70;99.90;;;;;;6185384;23;20025;-89
2022/10/06 09:23:46;;;;;;;1.63;1.52;;;16.80;99.90;;;;;;6184828;23;20467;-90
2022/10/06 09:26:14;;;;;;;;;;;16.80;99.90;;;;;;6185413;23;20025;-91
2022/10/06 09:29:00;;;;;;;1.90;1.67;;;16.90;99.90;;;;;;6159526;23;19919;-90
2022/10/06 09:31:30;;;;;;;4.60;1.38;;;17.10;99.90;;;;;;6187988;23;20029;-90
2022/10/06 09:34:31;;;;;;;6.38;2.10;;;17.10;99.90;;;;;;6186310;23;20031;-90
2022/10/06 09:37:14;;;;;;;6.20;2.30;;;17.10;99.90;;;;;;6187443;23;20031;-90
2022/10/06 09:39:51;;;;;;;1.73;1.50;;;17.10;99.90;;;;;;6186518;23;20025;-90
2022/10/06 09:42:28;;;;;;;3.83;2.75;;;17.30;99.90;;;;;;6160455;23;20020;-88
2022/10/06 09:45:23;;;;;;;4.38;2.15;;;17.30;99.90;;;;;;6157900;23;20025;-90
2022/10/06 09:47:51;;;;;;;5.07;2.40;;;17.40;99.90;;;;;;6185053;23;20021;-89
2022/10/06 09:50:28;;;;;;;1.73;1.63;;;17.40;99.90;;;;;;6186973;23;20027;-91
2022/10/06 09:53:08;;;;;;;3.75;2.63;;;17.50;99.90;;;;;;6186066;23;20027;-89
2022/10/06 09:55:38;;;;;;;4.43;1.48;;;17.60;99.90;;;;;;6218950;22;20021;-90
2022/10/06 09:58:55;;;;;;;2.30;2.10;;;17.40;99.90;;;;;;6210390;23;20017;-91
2022/10/06 10:01:25;;;;;;;1.95;1.67;;;17.50;99.90;;;;;;6136667;23;20029;-92
2022/10/06 10:03:59;;;;;;;2.30;2.10;;;17.50;99.90;;;;;;6182975;23;20532;-92
2022/10/06 10:06:50;;;;;;;1.92;1.17;;;17.50;99.90;;;;;;6211310;22;20730;-90
2022/10/06 10:09:28;;;;;;;4.40;1.85;;;17.60;99.90;;;;;;6220764;23;20027;-89
2022/10/06 10:14:58;;;;;;;5.63;2.80;;;17.80;99.90;;;;;;6186179;22;20024;-89
2022/10/06 10:17:34;;;;;;;8.38;1.85;;;17.70;99.90;;;;;;6162679;23;20457;-90
2022/10/06 10:20:26;;;;;;;2.88;1.95;;;17.80;99.90;;;;;;6186708;23;20632;-90
2022/10/06 10:22:57;;;;;;;4.90;1.77;;;17.80;99.90;;;;;;6162135;22;20021;-90
2022/10/06 10:25:50;;;;;;;4.33;1.53;;;17.90;99.90;;;;;;6188249;23;20017;-90
2022/10/06 10:28:55;;;;;;;2.22;2.03;;;17.90;99.90;;;;;;6215401;22;20263;-89
2022/10/06 10:31:30;;;;;;;3.67;2.17;;;18.00;99.90;;;;;;6216307;22;20024;-90
2022/10/06 10:34:03;;;;;;;4.80;1.83;;;18.00;99.90;;;;;;6186363;23;20096;-89
2022/10/06 10:42:23;;;;;;;2.38;2.15;;;18.00;99.90;;;;;;6238860;23;20024;-89
2022/10/06 10:44:58;;;;;;;7.80;1.92;;;18.20;99.90;;;;;;6244579;23;20039;-90
2022/10/06 10:47:33;;;;;;;2.65;2.28;;;18.10;99.90;;;;;;6248323;22;20027;-90
2022/10/06 10:50:38;;;;;;;5.13;2.58;;;18.20;99.90;;;;;;6201595;23;20071;-90
2022/10/06 10:53:30;;;;;;;2.08;1.80;;;18.20;99.90;;;;;;6192194;23;20316;-92
2022/10/06 10:56:16;;;;;;;3.28;2.00;;;18.20;99.90;;;;;;6157070;23;20020;-92
2022/10/06 10:58:59;;;;;;;3.67;1.92;;;18.20;99.90;;;;;;6193001;22;20016;-91
2022/10/06 11:02:13;;;;;;;1.80;1.70;;;18.20;99.90;;;;;;6149686;23;20036;-91
2022/10/06 11:09:11;;;;;;;5.45;4.55;;;18.20;99.90;;;;;;6180603;23;20032;-92
2022/10/06 11:12:24;;;;;;;9.52;2.80;;;18.20;99.90;;;;;;6139817;23;20366;-91
2022/10/06 11:15:34;;;;;;;5.65;3.38;;;18.20;99.90;;;;;;6118137;23;20021;-91
2022/10/06 11:18:25;;;;;;;3.55;1.92;;;18.30;99.90;;;;;;6141135;23;20032;-91
2022/10/06 11:21:05;;;;;;;2.90;1.88;;;18.40;99.90;;;;;;6131033;23;20045;-91
2022/10/06 11:23:58;;;;;;;6.05;3.20;;;18.40;99.90;;;;;;6122133;23;20472;-91
2022/10/06 11:26:48;;;;;;;5.35;2.00;;;18.50;99.90;;;;;;6154440;23;20021;-88
2022/10/06 11:33:48;;;;;;;2.53;2.28;;;18.60;99.90;;;;;;6071237;23;20420;-83
2022/10/06 11:36:45;;;;;;;2.40;2.20;;;18.50;99.90;;;;;;6047815;23;20022;-83
2022/10/06 11:39:29;;;;;;;3.63;3.05;;;18.30;99.90;;;;;;6150679;23;20037;-84
2022/10/06 11:42:39;;;;;;;6.72;2.92;;;18.10;99.90;;;;;;6099847;23;20025;-91
2022/10/06 11:45:28;;;;;;;4.55;2.63;;;18.00;99.90;;;;;;6074920;23;20037;-90
2022/10/06 11:48:33;;;;;;;5.83;2.47;;;18.00;99.90;;;;;;6073346;23;20170;-88
2022/10/06 11:51:19;;;;;;;8.00;3.30;;;17.90;99.90;;;;;;6106253;23;20260;-87
2022/10/06 11:53:47;;;;;;;3.88;2.30;;;17.60;99.90;;;;;;6100241;23;20017;-88
2022/10/06 11:56:17;;;;;;;4.70;2.45;;;17.60;99.90;;;;;;6098710;23;20591;-84
2022/10/06 11:58:50;;;;;;;2.10;1.92;;;17.60;99.90;;;;;;6157047;23;20018;-85
2022/10/06 12:01:30;;;;;;;9.02;2.35;;;17.60;99.90;;;;;;6173124;23;20016;-86
2022/10/06 12:04:06;;;;;;;8.30;1.95;;;17.70;99.90;;;;;;6219714;22;20031;-84
2022/10/06 12:06:43;;;;;;;3.53;3.22;;;17.80;99.90;;;;;;6225196;23;20035;-86
2022/10/06 12:09:30;;;;;;;8.60;2.60;;;17.80;99.90;;;;;;6241489;23;20420;-86
2022/10/06 12:12:18;;;;;;;5.80;2.33;;;17.90;99.90;;;;;;6252695;22;20031;-87
2022/10/06 12:15:17;;;;;;;6.03;2.58;;;17.90;99.90;;;;;;6178786;23;20023;31
2022/10/06 12:18:23;;;;;;;2.78;2.58;;;18.00;99.90;;;;;;6062935;23;20030;-82
2022/10/06 12:21:08;;;;;;;3.25;2.60;;;18.20;99.90;;;;;;6038998;23;20029;-89
2022/10/06 12:23:54;;;;;;;2.03;1.90;;;18.40;99.90;;;;;;6061773;23;20347;-85
2022/10/06 12:26:47;;;;;;;3.67;3.13;;;18.60;99.90;;;;;;6076645;23;20431;-90
2022/10/06 12:29:44;;;;;;;5.32;3.28;;;18.70;99.90;;;;;;6041278;23;20023;-89
2022/10/06 12:32:23;;;;;;;2.25;2.05;;;18.90;99.90;;;;;;6069471;23;20455;-87
2022/10/06 12:35:07;;;;;;;2.00;1.85;;;19.10;99.90;;;;;;6028016;23;20022;-87
2022/10/06 12:37:43;;;;;;;3.33;2.10;;;18.90;99.90;;;;;;6077225;23;20011;-86
2022/10/06 12:40:39;;;;;;;2.17;1.80;;;18.90;99.90;;;;;;6069926;23;20027;-87
2022/10/06 12:43:21;;;;;;;2.28;2.17;;;18.80;99.90;;;;;;6061444;23;20026;-87
2022/10/06 12:45:57;;;;;;;4.25;2.83;;;18.80;99.90;;;;;;6078474;23;20022;-86
2022/10/06 12:48:35;;;;;;;2.83;2.30;;;19.00;99.90;;;;;;6068203;23;20050;-87
2022/10/06 12:51:05;;;;;;;4.65;2.78;;;19.10;99.90;;;;;;6045607;23;20029;-88
2022/10/06 12:53:48;;;;;;;3.63;2.75;;;19.00;99.90;;;;;;6066709;23;20019;-88
2022/10/06 12:56:30;;;;;;;17.08;3.55;;;19.00;99.90;;;;;;6041932;23;20333;-89
2022/10/06 12:59:43;;;;;;;4.28;2.22;;;19.10;99.90;;;;;;6074647;23;20443;-87
2022/10/06 13:02:46;;;;;;;2.63;2.43;;;19.10;99.90;;;;;;5980694;23;20019;-88
2022/10/06 13:05:19;;;;;;;5.32;2.95;;;19.00;99.90;;;;;;6017948;23;20267;-87
2022/10/06 13:08:04;;;;;;;3.25;2.05;;;18.80;99.90;;;;;;6018623;23;20022;-87
2022/10/06 13:10:34;;;;;;;3.95;2.25;;;18.40;99.90;;;;;;6042966;23;20029;-89
2022/10/06 13:13:23;;;;;;;4.65;2.42;;;18.20;99.90;;;;;;6042203;23;20033;-86
2022/10/06 13:15:59;;;;;;;3.95;2.05;;;18.30;99.90;;;;;;6069419;23;20042;-86
2022/10/06 13:18:27;;;;;;;2.78;2.20;;;18.50;99.90;;;;;;6077338;23;20039;-89
2022/10/06 13:20:59;;;;;;;7.15;2.33;;;18.60;99.90;;;;;;6043266;23;20034;-93
2022/10/06 13:23:44;;;;;;;7.18;3.38;;;18.50;99.90;;;;;;6031186;23;20034;-87
2022/10/06 13:26:31;;;;;;;4.00;2.30;;;18.50;99.90;;;;;;6062938;23;20439;-87
2022/10/06 13:29:53;;;;;;;4.15;2.45;;;18.50;99.90;;;;;;6039254;23;20480;-91
2022/10/06 13:34:05;;;;;;;9.48;2.63;;;18.60;99.90;;;;;;5936131;23;20030;-90
2022/10/06 13:37:47;;;;;;;2.80;2.50;;;18.70;99.90;;;;;;5957734;23;20024;-90
2022/10/06 13:41:27;;;;;;;2.20;2.10;;;18.80;99.90;;;;;;6009285;23;20086;-89
2022/10/06 13:44:13;;;;;;;1.90;1.77;;;18.70;99.90;;;;;;5920400;23;20455;-89
2022/10/06 13:47:22;;;;;;;3.45;1.88;;;18.80;99.90;;;;;;5949178;23;20624;-90
2022/10/06 13:50:13;;;;;;;4.35;2.38;;;18.70;99.90;;;;;;5952575;23;20615;-88
2022/10/06 13:52:47;;;;;;;3.05;2.47;;;19.00;99.90;;;;;;5928182;24;20021;-89
2022/10/06 13:55:22;;;;;;;2.50;2.05;;;19.10;99.90;;;;;;5951824;24;20036;-87
2022/10/06 13:58:06;;;;;;;6.28;2.50;;;19.20;99.90;;;;;;5974783;24;20025;-86
2022/10/06 14:00:56;;;;;;;2.67;2.47;;;19.30;99.90;;;;;;5951697;24;20025;-88
2022/10/06 14:03:34;;;;;;;2.80;1.73;;;19.20;99.90;;;;;;5935400;23;20025;-87
2022/10/06 14:06:14;;;;;;;4.90;2.55;;;19.10;99.90;;;;;;5975665;23;20021;-86
2022/10/06 14:08:49;;;;;;;8.38;1.85;;;19.20;99.90;;;;;;5951765;24;20036;-87
2022/10/06 14:11:23;;;;;;;3.55;1.83;;;19.00;99.90;;;;;;5977818;23;20524;-87
2022/10/06 14:14:01;;;;;;;3.17;2.60;;;18.60;99.90;;;;;;5952183;24;20385;-87
2022/10/06 14:16:28;;;;;;;3.13;2.13;;;18.40;99.90;;;;;;5984116;23;20060;-86
2022/10/06 14:18:58;;;;;;;2.45;2.22;;;18.40;99.90;;;;;;6047009;23;20023;-86
2022/10/06 14:21:40;;;;;;;10.10;2.00;;;18.30;99.90;;;;;;6022983;23;20018;-87
2022/10/06 14:24:18;;;;;;;1.55;1.45;;;18.40;99.90;;;;;;6070362;23;20472;-87
2022/10/06 14:26:50;;;;;;;2.85;1.83;;;18.60;99.90;;;;;;6069791;23;20026;-87
2022/10/06 14:29:18;;;;;;;5.75;2.17;;;18.60;99.90;;;;;;6071015;23;20025;-87
2022/10/06 14:31:46;;;;;;;3.22;1.80;;;18.80;99.90;;;;;;6070166;23;20480;-87
2022/10/06 14:34:19;;;;;;;1.88;1.38;;;19.00;99.90;;;;;;6071218;23;20438;-87
2022/10/06 14:36:52;;;;;;;1.35;1.20;;;18.90;99.90;;;;;;6094518;23;20022;-88
2022/10/06 14:39:19;;;;;;;2.38;2.03;;;18.90;99.90;;;;;;6047194;23;20015;-87
2022/10/06 14:41:47;;;;;;;1.98;1.67;;;18.90;99.90;;;;;;6070318;23;20014;-86
2022/10/06 14:44:15;;;;;;;3.90;2.17;;;18.80;99.90;;;;;;6070082;23;20033;-87
2022/10/06 14:46:46;;;;;;;3.90;1.92;;;18.80;99.90;;;;;;6103808;23;20469;-86
2022/10/06 14:49:14;;;;;;;3.60;2.00;;;18.80;99.90;;;;;;6071248;23;20033;-87
2022/10/06 14:51:43;;;;;;;1.75;1.65;;;18.80;99.90;;;;;;6069906;23;20480;-87
2022/10/06 14:54:11;;;;;;;5.18;2.88;;;18.80;99.90;;;;;;6071121;23;20338;-86
2022/10/06 14:56:39;;;;;;;11.80;2.30;;;18.80;99.90;;;;;;6096424;23;20350;-86
2022/10/06 15:29:45;;;;;;;2.60;1.75;;;18.30;99.90;;;;;;6201555;23;20575;-86
2022/10/06 15:32:14;;;;;;;1.80;1.65;;;18.20;99.90;;;;;;6188571;23;20029;-85
2022/10/06 15:34:41;;;;;;;1.95;1.85;;;18.20;99.90;;;;;;6165720;23;20344;-85
2022/10/06 15:37:41;;;;;;;2.03;1.67;;;18.10;99.90;;;;;;6156589;23;20035;-85
2022/10/06 15:40:09;;;;;;;2.03;1.90;;;18.10;99.90;;;;;;6193662;23;20020;-87
2022/10/06 15:42:37;;;;;;;1.90;1.75;;;18.00;99.90;;;;;;6199647;23;20608;-87
2022/10/06 15:45:08;;;;;;;2.00;1.80;;;17.90;99.90;;;;;;6188611;23;20028;-89
2022/10/06 15:47:36;;;;;;;;;;;17.80;99.90;;;;;;6221354;22;20352;-87
2022/10/06 15:50:04;;;;;;;7.50;2.30;;;17.70;99.90;;;;;;6225499;23;19915;-87
2022/10/06 15:52:32;;;;;;;2.28;2.13;;;17.60;99.90;;;;;;6191635;23;20021;-86
2022/10/06 15:55:00;;;;;;;2.33;2.05;;;17.40;99.90;;;;;;6188439;23;20452;-87
2022/10/06 15:57:29;;;;;;;3.95;2.53;;;17.50;99.90;;;;;;6199415;23;20020;-86
2022/10/06 15:59:57;;;;;;;2.95;2.33;;;17.40;99.90;;;;;;6188787;23;20028;-86
2022/10/06 16:02:34;;;;;;;3.13;2.83;;;17.30;99.90;;;;;;6189629;23;20024;-85
2022/10/06 16:13:01;;;;;;;2.90;2.03;;;17.10;99.90;;;;;;6153970;23;20009;-90
2022/10/06 16:16:34;;;;;;;2.78;1.60;;;17.00;99.90;;;;;;6083732;23;20030;-91
2022/10/06 16:19:57;;;;;;;6.78;1.92;;;16.90;99.90;;;;;;6189515;23;20032;-90
2022/10/06 16:23:11;;;;;;;2.17;1.98;;;16.70;99.90;;;;;;6143398;22;20027;-91
2022/10/06 16:26:19;;;;;;;2.75;1.75;;;16.60;99.90;;;;;;6158230;23;20024;-85
2022/10/06 16:29:02;;;;;;;5.25;2.42;;;16.30;99.90;;;;;;6120323;23;20031;-84
2022/10/06 18:14:40;;;;;;;3.83;2.85;;;12.70;99.90;;;;;;6163112;23;20025;-86
2022/10/06 18:18:09;;;;;;;3.97;3.60;;;12.50;99.90;;;;;;6056366;23;20034;-85
2022/10/06 18:22:08;;;;;;;3.85;2.60;;;12.40;99.90;;;;;;5993215;23;20041;-85
2022/10/06 18:24:50;;;;;;;6.25;3.15;;;12.30;99.90;;;;;;6135489;22;20024;-84
2022/10/06 18:27:32;;;;;;;4.35;3.80;;;12.20;99.90;;;;;;6193785;23;20024;-83
2022/10/06 18:30:29;;;;;;;4.22;3.53;;;12.30;99.90;;;;;;6151664;23;20317;-83
2022/10/06 18:32:57;;;;;;;9.95;4.60;;;12.40;99.90;;;;;;6162800;23;20032;-92
2022/10/06 18:36:32;;;;;;;4.15;3.28;;;12.50;99.90;;;;;;6163793;23;20028;-92
2022/10/06 18:39:17;;;;;;;7.10;4.22;;;12.60;99.90;;;;;;6170992;22;20030;-91
2022/10/06 18:42:01;;;;;;;10.20;5.10;;;12.70;99.90;;;;;;6188974;23;20020;-92
2022/10/06 18:51:07;;;;;;;8.95;6.93;;;13.20;99.90;;;;;;6170270;22;20023;-91
2022/10/06 18:53:54;;;;;;;8.73;4.43;;;13.30;99.90;;;;;;6165107;23;20021;-92
2022/10/06 18:56:36;;;;;;;4.57;4.17;;;13.30;99.90;;;;;;6159213;23;20025;-92
2022/10/06 18:59:29;;;;;;;10.27;4.40;;;13.30;99.90;;;;;;6184223;22;20027;-91
2022/10/06 19:02:38;;;;;;;6.82;4.10;;;13.30;99.90;;;;;;6166936;23;20455;-92
2022/10/06 19:05:57;;;;;;;8.18;4.03;;;13.30;99.90;;;;;;6127444;23;20027;-92
2022/10/06 19:09:37;;;;;;;8.02;4.75;;;13.20;99.90;;;;;;6192112;23;20035;-91
2022/10/06 19:12:32;;;;;;;7.03;5.50;;;13.30;99.90;;;;;;6155467;23;20356;-92
2022/10/06 19:15:25;;;;;;;9.07;4.15;;;13.20;99.90;;;;;;6169822;23;20340;-90
2022/10/06 19:18:00;;;;;;;3.97;3.63;;;13.10;99.90;;;;;;6223787;23;20034;-91
2022/10/06 19:21:21;;;;;;;5.82;3.53;;;13.20;99.90;;;;;;6155560;23;20475;-93
2022/10/06 19:23:49;;;;;;;4.30;3.80;;;13.20;99.90;;;;;;6188996;23;20028;-90
2022/10/06 19:26:17;;;;;;;8.90;6.60;;;13.20;99.90;;;;;;6164988;23;20016;-88
2022/10/06 19:28:45;;;;;;;5.72;3.92;;;13.10;99.90;;;;;;6192293;23;20021;-92
2022/10/06 19:31:18;;;;;;;6.07;3.70;;;13.10;99.90;;;;;;6190536;23;20016;-93
2022/10/06 19:34:09;;;;;;;9.20;6.10;;;13.10;99.90;;;;;;6167567;23;20035;-92
2022/10/06 19:36:40;;;;;;;6.80;6.20;;;13.10;99.90;;;;;;6190856;23;20024;-93
2022/10/06 19:39:10;;;;;;;8.18;4.07;;;13.00;99.90;;;;;;6117485;23;20036;-92
2022/10/06 19:44:26;;;;;;;4.53;4.13;;;12.90;99.90;;;;;;6166435;23;20032;-92
2022/10/06 19:46:54;;;;;;;4.63;4.32;;;12.80;99.90;;;;;;6140749;23;20012;-93
2022/10/06 19:49:22;;;;;;;4.90;4.10;;;12.70;99.90;;;;;;6142282;23;20020;-93
2022/10/06 19:51:50;;;;;;;7.30;5.55;;;12.70;99.90;;;;;;6165442;23;20448;-92
2022/10/06 19:54:18;;;;;;;7.78;6.97;;;12.60;99.90;;;;;;6202445;23;20057;-93
2022/10/06 19:56:46;;;;;;;6.38;5.78;;;12.60;99.90;;;;;;6166207;23;20025;-93
2022/10/06 19:59:17;;;;;;;6.70;3.53;;;12.60;99.90;;;;;;6165608;23;20028;-94
2022/10/06 20:01:45;;;;;;;14.40;4.55;;;12.60;99.90;;;;;;6167247;23;20030;-93
2022/10/06 20:04:14;;;;;;;9.65;3.65;;;12.50;99.90;;;;;;6141577;23;20029;-92
2022/10/06 20:12:04;;;;;;;4.38;3.97;;;12.50;99.90;;;;;;6220993;23;20462;-92
2022/10/06 20:14:32;;;;;;;4.28;3.88;;;12.40;99.90;;;;;;6166976;23;20016;-92
2022/10/06 20:17:01;;;;;;;3.78;3.42;;;12.40;99.90;;;;;;6166278;23;20024;-93
2022/10/06 20:19:29;;;;;;;3.15;2.95;;;12.40;99.90;;;;;;6166277;23;20329;-92
2022/10/06 20:21:57;;;;;;;5.90;3.75;;;12.30;99.90;;;;;;6142167;23;20020;-91
2022/10/06 20:24:37;;;;;;;4.00;3.60;;;12.30;99.90;;;;;;6141742;23;20031;-92
2022/10/06 20:27:09;;;;;;;4.10;3.35;;;12.20;99.90;;;;;;6125906;23;20336;-93
2022/10/06 20:29:46;;;;;;;9.57;3.75;;;12.10;99.90;;;;;;6167401;23;20017;-94
2022/10/06 20:32:14;;;;;;;4.05;3.55;;;11.90;99.90;;;;;;6166407;23;20021;-94
2022/10/06 20:34:42;;;;;;;3.03;2.72;;;11.70;99.90;;;;;;6166612;23;20021;-92
2022/10/06 20:37:43;;;;;;;6.20;3.60;;;11.70;99.90;;;;;;6151320;23;20340;-93
2022/10/06 20:43:01;;;;;;;4.15;3.85;;;11.60;99.90;;;;;;6166372;23;20024;-94
2022/10/06 20:45:31;;;;;;;3.90;3.13;;;11.60;99.90;;;;;;6166762;23;20339;-93
2022/10/06 20:48:04;;;;;;;2.60;2.45;;;11.60;99.90;;;;;;6163992;23;20036;-85
2022/10/06 20:50:34;;;;;;;3.85;2.95;;;11.40;99.90;;;;;;6199889;23;20305;-85
2022/10/06 20:53:05;;;;;;;5.95;3.25;;;11.40;99.90;;;;;;6140718;23;20016;-84
2022/10/06 20:55:35;;;;;;;3.33;3.03;;;11.30;99.90;;;;;;6139689;23;20028;-85
2022/10/06 20:58:08;;;;;;;3.20;2.90;;;11.40;99.90;;;;;;6189195;23;20021;-85
2022/10/06 21:00:35;;;;;;;5.60;3.13;;;11.40;99.90;;;;;;6189193;23;20063;-85
2022/10/06 21:03:03;;;;;;;3.25;3.05;;;11.40;99.90;;;;;;6163187;23;20036;-84
2022/10/06 21:05:47;;;;;;;3.30;3.10;;;11.40;99.90;;;;;;6224580;23;20039;-84
2022/10/06 21:08:17;;;;;;;2.92;2.60;;;11.40;99.90;;;;;;6218582;23;20027;-84
2022/10/06 21:10:53;;;;;;;4.85;3.28;;;11.30;99.90;;;;;;6187937;23;20020;-85
2022/10/06 21:13:23;;;;;;;3.10;2.80;;;11.30;99.90;;;;;;6189050;23;20012;-84
2022/10/06 21:16:00;;;;;;;6.10;2.78;;;11.30;99.90;;;;;;6194026;23;20305;-84
2022/10/06 21:18:28;;;;;;;3.58;2.85;;;11.30;99.90;;;;;;6174625;23;20069;-84
2022/10/06 21:21:06;;;;;;;2.78;2.58;;;11.30;99.90;;;;;;6188817;23;20416;-84
2022/10/06 21:23:39;;;;;;;3.70;3.40;;;11.30;99.90;;;;;;6187740;23;20021;-84
2022/10/06 21:26:11;;;;;;;3.40;3.10;;;11.20;99.90;;;;;;6225397;23;20012;-84
2022/10/06 21:28:39;;;;;;;7.75;2.85;;;11.10;99.90;;;;;;6188460;23;20027;-84
2022/10/06 21:31:14;;;;;;;2.83;2.63;;;10.90;99.90;;;;;;6196192;23;20023;-84
2022/10/06 21:33:45;;;;;;;7.07;3.33;;;10.70;99.90;;;;;;6199868;23;20024;-84
2022/10/06 21:36:21;;;;;;;3.10;2.80;;;10.70;99.90;;;;;;6192208;23;20020;-84
2022/10/06 21:38:54;;;;;;;2.67;2.47;;;10.70;99.90;;;;;;6188639;23;20028;-85
2022/10/06 21:41:37;;;;;;;4.53;2.85;;;10.70;99.90;;;;;;6225681;23;20019;-84
2022/10/06 21:44:08;;;;;;;3.92;3.10;;;10.70;99.90;;;;;;6187961;23;20031;-84
2022/10/06 21:46:41;;;;;;;3.05;2.75;;;10.80;99.90;;;;;;6226088;23;20024;-84
2022/10/06 21:49:11;;;;;;;2.90;2.67;;;10.70;99.90;;;;;;6163067;23;20020;-84
2022/10/06 21:51:40;;;;;;;2.53;2.33;;;10.80;99.90;;;;;;6168983;23;20017;-84
2022/10/06 21:54:09;;;;;;;2.78;2.58;;;10.70;99.90;;;;;;6163936;23;20462;-84
2022/10/06 21:56:37;;;;;;;3.10;2.80;;;10.70;99.90;;;;;;6190299;23;20051;-84
2022/10/06 21:59:06;;;;;;;3.47;2.78;;;10.80;99.90;;;;;;6163359;23;20024;-84
2022/10/06 22:01:35;;;;;;;3.03;2.70;;;10.80;99.90;;;;;;6163758;23;20324;-85
2022/10/06 22:04:04;;;;;;;4.05;2.15;;;10.80;99.90;;;;;;6192623;23;20444;-84
2022/10/06 22:06:34;;;;;;;2.75;2.55;;;10.80;99.90;;;;;;6223829;23;20019;-84
2022/10/06 22:09:04;;;;;;;2.05;1.80;;;10.70;99.90;;;;;;6188549;23;20021;-84
2022/10/06 22:11:35;;;;;;;3.55;2.10;;;10.70;99.90;;;;;;6220876;23;20023;-84
2022/10/06 22:14:06;;;;;;;2.00;1.80;;;10.70;99.90;;;;;;6187793;23;20020;-84
2022/10/06 22:16:35;;;;;;;2.10;2.00;;;10.70;99.90;;;;;;6173975;23;20021;-84
2022/10/06 22:19:05;;;;;;;2.95;2.60;;;10.70;99.90;;;;;;6222957;23;20320;-84
2022/10/06 22:21:38;;;;;;;3.95;2.70;;;10.60;99.90;;;;;;6194223;23;20024;-84
2022/10/06 22:24:12;;;;;;;18.05;2.58;;;10.70;99.90;;;;;;6218818;23;20417;-84
2022/10/06 22:26:41;;;;;;;4.82;3.65;;;10.60;99.90;;;;;;6197959;23;20020;-84
2022/10/06 22:29:12;;;;;;;;;;;10.60;99.90;;;;;;6212798;23;20025;-84
2022/10/06 22:31:41;;;;;;;3.55;2.97;;;10.60;99.90;;;;;;6220445;23;19915;-84
2022/10/06 22:34:11;;;;;;;2.60;2.40;;;10.50;99.90;;;;;;6225343;23;20440;-84
2022/10/06 22:36:39;;;;;;;3.20;2.90;;;10.20;99.90;;;;;;6216410;23;20021;-84
2022/10/06 22:39:07;;;;;;;4.55;3.05;;;10.20;99.90;;;;;;6222685;23;20035;-84
2022/10/06 22:41:35;;;;;;;5.07;3.33;;;10.20;99.90;;;;;;6224330;23;20012;-84
2022/10/06 22:44:06;;;;;;;6.07;3.85;;;10.20;99.90;;;;;;6214175;23;20021;-84
2022/10/06 22:46:38;;;;;;;7.57;4.00;;;10.20;99.90;;;;;;6225038;23;20013;-84
2022/10/06 22:49:09;;;;;;;4.57;3.40;;;10.20;99.90;;;;;;6187441;23;20460;-84
2022/10/06 22:51:39;;;;;;;4.88;3.80;;;10.20;99.90;;;;;;6220426;23;20025;-84
2022/10/06 22:54:16;;;;;;;6.95;4.90;;;10.30;99.90;;;;;;6163700;23;20021;-84
2022/10/06 22:56:44;;;;;;;7.97;2.83;;;10.30;99.90;;;;;;6187179;23;20348;-84
2022/10/06 22:59:11;;;;;;;3.90;3.05;;;10.40;99.90;;;;;;6187581;23;20028;-84
2022/10/06 23:01:39;;;;;;;3.90;3.47;;;10.30;99.90;;;;;;6163695;23;20028;-84
2022/10/06 23:04:08;;;;;;;4.95;3.20;;;10.30;99.90;;;;;;6214205;23;20033;-84
2022/10/06 23:07:14;;;;;;;4.25;2.67;;;10.20;99.90;;;;;;6225034;23;20020;-84
2022/10/06 23:09:41;;;;;;;5.68;2.55;;;10.30;99.90;;;;;;6202293;23;20036;-84
2022/10/06 23:12:09;;;;;;;4.97;1.92;;;10.20;99.90;;;;;;6217327;23;20052;-84
2022/10/06 23:14:36;;;;;;;2.42;2.28;;;10.30;99.90;;;;;;6225159;23;20012;-84
2022/10/06 23:17:04;;;;;;;2.75;1.95;;;10.30;99.90;;;;;;6214523;23;20028;-84
2022/10/06 23:19:31;;;;;;;2.10;1.90;;;10.40;99.90;;;;;;6187806;23;20024;-84
2022/10/06 23:21:59;;;;;;;3.47;2.10;;;10.50;99.90;;;;;;6218539;23;20024;-84